Current | Forecast
Updated: 10:30 AM EEST on April 26, 2017
Observed at M?rcule?ti, Ukraine
Temperature 13°C
Humidity 63%
Dew Point 6°C
Wind SSE at 18 km/h
Pressure 1017 hPa (Steady)
Conditions Clear
Visibility -
UV N/A
Clouds
Yesterday's Maximum 1°C
Yesterday's Minimum 1°C approx.
Yesterday's Heating Degree Days 31 approx.
Sunrise5:53 AM EEST
Sunset8:09 PM EEST
Moon Rise6:13 AM EEST
Moon Set8:04 PM EEST
Moon PhaseMoon Phase
Waning Crescent
Raw METARMETAR LUBM 260730Z 15010KT CAVOK 13/06 Q1017


Monday
. High: 64° F.
Tuesday
. High: 66° F.
Wednesday
. High: 71° F.
Thursday
. High: 73° F.
Friday
. High: 64° F.
Saturday
. High: 68° F.
Sunday
. High: 66° F.
Monday
. High: 75° F.

Units: English | Metric

Find the Weather for any City, State or Zipcode, or Country:

U.S. State List | Severe Weather | Tropical Storms | Ski Conditions
United States | Canada | Central America | South America | Asia | Europe | Australia | Africa | Islands

Weather Underground

© Copyright 2017
The Weather Company, LLC